Time;durP1;ratioP1;P1;durP2;ratioP2;P2;SDS_P1;SDS_P2;PMS_P1;PMS_P2;Temp;Humidity;BMP_temperature;BMP_pressure;BME280_temperature;BME280_humidity;BME280_pressure;Samples;Min_cycle;Max_cycle;Signal;HPM_P1;HPM_P2
2022/08/04 00:00:01;;;;;;;13.88;11.25;;;25.60;69.30;;;;;;6126185;28;83162;-70
2022/08/04 00:03:01;;;;;;;18.38;11.88;;;25.60;69.20;;;;;;6126222;28;83511;-70
2022/08/04 00:06:02;;;;;;;14.73;10.68;;;25.60;69.10;;;;;;6132794;28;84118;-71
2022/08/04 00:09:02;;;;;;;16.67;11.23;;;25.60;68.90;;;;;;6121794;28;83242;-71
2022/08/04 00:12:03;;;;;;;13.50;10.57;;;25.60;69.00;;;;;;6122575;28;82885;-71
2022/08/04 00:15:03;;;;;;;16.13;11.30;;;25.60;68.60;;;;;;6126873;28;85888;-71
2022/08/04 00:18:04;;;;;;;15.90;10.32;;;25.60;68.50;;;;;;6117739;28;83246;-71
2022/08/04 00:21:04;;;;;;;15.80;11.05;;;25.60;68.80;;;;;;6132820;28;84472;-72
2022/08/04 00:24:05;;;;;;;16.35;10.52;;;25.50;68.80;;;;;;6118340;28;83022;-72
2022/08/04 00:27:05;;;;;;;15.48;11.15;;;25.50;68.90;;;;;;6119117;28;83603;-72
2022/08/04 00:30:06;;;;;;;15.90;10.43;;;25.50;69.00;;;;;;6143618;28;85799;-73
2022/08/04 00:33:06;;;;;;;15.50;10.88;;;25.50;69.00;;;;;;6109441;28;84643;-71
2022/08/04 00:36:07;;;;;;;18.67;11.48;;;25.50;69.00;;;;;;6114043;28;83238;-74
2022/08/04 00:39:07;;;;;;;18.33;11.25;;;25.50;69.10;;;;;;6126981;28;86140;-74
2022/08/04 00:42:08;;;;;;;14.23;10.43;;;25.50;69.10;;;;;;6126303;28;83026;-73
2022/08/04 00:45:08;;;;;;;15.75;11.65;;;25.50;70.10;;;;;;6152162;28;83080;-70
2022/08/04 00:48:09;;;;;;;18.35;11.27;;;25.50;69.50;;;;;;6134933;28;83789;-66
2022/08/04 00:51:09;;;;;;;16.40;11.70;;;25.50;69.60;;;;;;6148597;28;83036;-66
2022/08/04 00:54:10;;;;;;;20.83;12.50;;;25.50;69.50;;;;;;6142624;28;82779;-66
2022/08/04 00:57:10;;;;;;;15.15;11.32;;;25.50;69.30;;;;;;6144892;28;83887;-65
2022/08/04 01:00:11;;;;;;;18.52;10.02;;;25.50;69.10;;;;;;6148613;28;82963;-66
2022/08/04 01:03:11;;;;;;;15.30;10.95;;;25.50;68.90;;;;;;6138134;28;83459;-65
2022/08/04 01:06:12;;;;;;;15.73;11.32;;;25.50;69.00;;;;;;6131588;28;83961;-66
2022/08/04 01:09:12;;;;;;;15.23;11.25;;;25.50;68.90;;;;;;6156218;28;83287;-67
2022/08/04 01:12:13;;;;;;;17.13;11.73;;;25.50;69.10;;;;;;6155659;28;82992;-66
2022/08/04 01:15:13;;;;;;;15.50;10.90;;;25.50;69.00;;;;;;6142319;28;83318;-65
2022/08/04 01:18:14;;;;;;;16.83;11.05;;;25.50;68.90;;;;;;6156027;28;82883;-65
2022/08/04 01:21:14;;;;;;;15.48;10.57;;;25.50;68.80;;;;;;6155450;28;84151;-66
2022/08/04 01:24:15;;;;;;;15.38;10.63;;;25.50;68.90;;;;;;6140503;28;84053;-66
2022/08/04 01:27:15;;;;;;;14.57;10.75;;;25.50;68.80;;;;;;6136915;28;83546;-65
2022/08/04 01:30:16;;;;;;;17.42;10.82;;;25.40;69.10;;;;;;6132830;28;83184;-65
2022/08/04 01:33:16;;;;;;;14.30;10.77;;;25.40;68.90;;;;;;6143239;28;83494;-64
2022/08/04 01:36:17;;;;;;;14.98;10.25;;;25.40;68.90;;;;;;6139690;28;82964;-66
2022/08/04 01:42:36;;;;;;;15.98;11.05;;;25.40;69.00;;;;;;6132826;28;83160;-64
2022/08/04 01:45:37;;;;;;;13.70;10.20;;;25.40;68.90;;;;;;6146840;28;84706;-65
2022/08/04 01:48:38;;;;;;;12.68;10.40;;;25.30;69.10;;;;;;6134695;28;84088;-66
2022/08/04 01:51:38;;;;;;;14.90;11.18;;;25.30;69.00;;;;;;6148982;28;83612;-65
2022/08/04 01:54:39;;;;;;;14.77;10.80;;;25.40;68.90;;;;;;6154695;28;84459;-66
2022/08/04 01:57:39;;;;;;;15.25;11.43;;;25.30;68.90;;;;;;6142300;28;83214;-66
2022/08/04 02:00:40;;;;;;;17.00;10.10;;;25.30;68.90;;;;;;6134539;28;83926;-67
2022/08/04 02:03:40;;;;;;;15.40;11.85;;;25.30;68.80;;;;;;6158503;28;83082;-66
2022/08/04 02:06:41;;;;;;;17.48;11.20;;;25.30;68.80;;;;;;6151515;28;83784;-66
2022/08/04 02:09:44;;;;;;;15.38;11.68;;;25.30;68.90;;;;;;6152065;28;85825;-66
2022/08/04 02:12:47;;;;;;;18.20;10.95;;;25.30;68.80;;;;;;6143362;28;84398;-65
2022/08/04 02:15:47;;;;;;;14.75;10.60;;;25.30;68.70;;;;;;6134723;28;90497;-66
2022/08/04 02:18:48;;;;;;;14.18;11.13;;;25.30;68.80;;;;;;6153706;28;83033;-66
2022/08/04 02:21:48;;;;;;;14.48;10.88;;;25.30;68.80;;;;;;6142503;28;84824;-67
2022/08/04 02:24:49;;;;;;;16.30;11.35;;;25.30;68.70;;;;;;6146846;28;82835;-67
2022/08/04 02:27:49;;;;;;;16.33;10.60;;;25.30;68.60;;;;;;6144547;28;84165;-66
2022/08/04 02:30:50;;;;;;;16.00;10.10;;;25.30;68.70;;;;;;6152241;28;83033;-66
2022/08/04 02:33:50;;;;;;;14.50;10.57;;;25.30;68.70;;;;;;6151124;28;83480;-66
2022/08/04 02:36:51;;;;;;;13.98;10.80;;;25.30;68.60;;;;;;6157783;28;82988;-66
2022/08/04 02:39:51;;;;;;;17.80;11.98;;;25.30;68.70;;;;;;6148058;28;83892;-66
2022/08/04 02:42:52;;;;;;;14.65;11.05;;;25.30;68.60;;;;;;6154973;28;83910;-66
2022/08/04 02:45:52;;;;;;;12.68;10.43;;;25.30;69.30;;;;;;6153146;28;83423;-66
2022/08/04 02:48:53;;;;;;;17.90;11.02;;;25.30;68.70;;;;;;6157655;28;84066;-66
2022/08/04 02:51:53;;;;;;;16.85;11.48;;;25.30;68.60;;;;;;6158167;28;83057;-66
2022/08/04 02:54:54;;;;;;;19.13;10.80;;;25.30;68.70;;;;;;6143373;28;82874;-67
2022/08/04 02:57:55;;;;;;;14.80;10.32;;;25.30;68.60;;;;;;6143682;28;83211;-67
2022/08/04 03:00:55;;;;;;;14.90;11.15;;;25.30;68.40;;;;;;6157968;28;83064;-67
2022/08/04 03:03:58;;;;;;;18.20;12.05;;;25.30;68.60;;;;;;6158038;28;82970;-66
2022/08/04 03:06:58;;;;;;;14.10;10.65;;;25.30;68.50;;;;;;6141312;28;83399;-66
2022/08/04 03:09:59;;;;;;;13.00;9.90;;;25.30;68.30;;;;;;6142541;28;86254;-66
2022/08/04 03:12:59;;;;;;;13.00;10.60;;;25.30;68.30;;;;;;6160939;28;83048;-66
2022/08/04 03:16:00;;;;;;;16.15;11.35;;;25.30;68.20;;;;;;6157417;28;82688;-67
2022/08/04 03:19:00;;;;;;;13.68;9.93;;;25.30;68.30;;;;;;6157520;28;84130;-67
2022/08/04 03:22:01;;;;;;;16.00;10.60;;;25.30;68.30;;;;;;6139127;28;82950;-67
2022/08/04 03:25:01;;;;;;;16.33;11.93;;;25.30;68.20;;;;;;6147386;28;83119;-67
2022/08/04 03:28:02;;;;;;;17.02;11.48;;;25.30;67.90;;;;;;6144715;28;85872;-67
2022/08/04 03:31:02;;;;;;;18.42;11.05;;;25.30;67.60;;;;;;6141083;28;90376;-66
2022/08/04 03:34:03;;;;;;;13.35;10.05;;;25.20;67.50;;;;;;6157450;28;84127;-67
2022/08/04 03:37:04;;;;;;;15.82;10.05;;;25.20;67.80;;;;;;6156767;28;83003;-67
2022/08/04 03:40:04;;;;;;;17.08;11.63;;;25.30;67.50;;;;;;6145086;28;83009;-67
2022/08/04 03:43:05;;;;;;;19.20;10.43;;;25.30;67.70;;;;;;6146757;28;83288;-66
2022/08/04 03:46:05;;;;;;;14.60;10.70;;;25.30;67.80;;;;;;6146045;28;83165;-65
2022/08/04 03:49:07;;;;;;;13.93;9.82;;;25.30;67.60;;;;;;6148629;28;82974;-65
2022/08/04 03:55:26;;;;;;;18.92;11.50;;;25.30;67.10;;;;;;6145217;28;83241;-65
2022/08/04 03:58:27;;;;;;;16.45;10.23;;;25.30;67.40;;;;;;6149585;28;84054;-64
2022/08/04 04:01:27;;;;;;;13.45;9.65;;;25.30;67.30;;;;;;6142369;28;83069;-65
2022/08/04 04:04:28;;;;;;;13.57;9.88;;;25.30;67.30;;;;;;6146126;28;81964;-65
2022/08/04 04:07:28;;;;;;;14.40;11.00;;;25.30;67.30;;;;;;6152928;28;80262;-68
2022/08/04 04:10:29;;;;;;;14.02;10.30;;;25.30;67.80;;;;;;6143613;28;83349;-63
2022/08/04 04:13:29;;;;;;;14.43;10.15;;;25.40;67.30;;;;;;6144769;28;83279;-64
2022/08/04 04:16:30;;;;;;;16.02;10.68;;;25.40;67.20;;;;;;6140101;28;83389;-65
2022/08/04 04:19:30;;;;;;;18.92;11.30;;;25.40;67.20;;;;;;6146129;28;82990;-66
2022/08/04 04:22:31;;;;;;;17.75;11.05;;;25.40;67.50;;;;;;6131706;28;84129;-64
2022/08/04 04:25:31;;;;;;;15.05;10.23;;;25.40;67.60;;;;;;6122714;28;83686;-65
2022/08/04 04:28:33;;;;;;;15.27;10.48;;;25.40;67.90;;;;;;6126802;28;83301;-64
2022/08/04 04:31:34;;;;;;;22.88;10.57;;;25.40;68.80;;;;;;6147587;28;83772;-65
2022/08/04 04:34:35;;;;;;;15.65;10.50;;;25.50;68.20;;;;;;6150753;28;82974;-64
2022/08/04 04:37:35;;;;;;;15.00;10.55;;;25.50;68.20;;;;;;6151438;28;83487;-65
2022/08/04 04:40:36;;;;;;;16.48;10.45;;;25.50;68.20;;;;;;6156547;28;83167;-77
2022/08/04 04:43:37;;;;;;;21.90;9.60;;;25.50;68.00;;;;;;6135359;28;83222;-64
2022/08/04 04:46:37;;;;;;;15.13;10.23;;;25.50;68.00;;;;;;6153551;28;84291;-64
2022/08/04 04:49:38;;;;;;;12.60;9.50;;;25.50;67.90;;;;;;6146972;28;83125;-65
2022/08/04 04:52:38;;;;;;;13.02;9.80;;;25.50;68.10;;;;;;6148905;28;86181;-64
2022/08/04 04:55:39;;;;;;;21.08;10.55;;;25.60;68.00;;;;;;6157304;28;80952;-63
2022/08/04 04:58:39;;;;;;;17.23;11.43;;;25.60;68.10;;;;;;6143355;28;82672;-63
2022/08/04 05:01:40;;;;;;;18.20;10.65;;;25.60;67.70;;;;;;6146313;28;84794;-63
2022/08/04 05:04:40;;;;;;;17.38;10.40;;;25.70;67.80;;;;;;6146253;28;83052;-63
2022/08/04 05:07:41;;;;;;;15.63;10.35;;;25.70;67.80;;;;;;6142360;28;83022;-64
2022/08/04 05:10:41;;;;;;;13.23;9.80;;;25.70;67.80;;;;;;6139723;28;84016;-64
2022/08/04 05:13:42;;;;;;;14.65;9.45;;;25.70;67.90;;;;;;6134917;28;83028;-63
2022/08/04 05:16:42;;;;;;;13.98;10.23;;;25.70;68.10;;;;;;6148724;28;80420;-63
2022/08/04 05:19:43;;;;;;;12.52;9.90;;;25.70;68.00;;;;;;6142384;28;82899;-63
2022/08/04 05:22:43;;;;;;;15.75;11.07;;;25.70;67.90;;;;;;6146332;28;81871;-64
2022/08/04 05:25:44;;;;;;;17.63;10.60;;;25.70;68.00;;;;;;6136080;28;83185;-63
2022/08/04 05:28:44;;;;;;;15.18;11.18;;;25.60;68.40;;;;;;6138723;28;83137;-62
2022/08/04 05:31:45;;;;;;;16.75;9.50;;;25.60;68.60;;;;;;6148904;28;82968;-63
2022/08/04 05:34:45;;;;;;;16.63;9.15;;;25.60;68.70;;;;;;6149024;28;83077;-62
2022/08/04 05:37:47;;;;;;;12.23;9.40;;;25.60;68.80;;;;;;6162740;28;80024;-63
2022/08/04 05:40:47;;;;;;;18.88;10.15;;;25.70;68.80;;;;;;6162702;28;80483;-70
2022/08/04 05:43:48;;;;;;;16.25;9.45;;;25.70;68.60;;;;;;6143760;28;83039;-63
2022/08/04 05:46:48;;;;;;;12.93;9.55;;;25.70;68.70;;;;;;6146121;28;83027;-63
2022/08/04 05:49:49;;;;;;;23.90;12.18;;;25.70;68.80;;;;;;6153942;28;80570;-64
2022/08/04 05:52:49;;;;;;;16.85;11.10;;;25.70;68.90;;;;;;6135082;28;82963;-62
2022/08/04 05:55:50;;;;;;;22.17;12.35;;;25.80;68.90;;;;;;6140455;28;83264;-63
2022/08/04 05:58:50;;;;;;;20.40;12.48;;;25.80;68.70;;;;;;6134806;28;82973;-62
2022/08/04 06:01:51;;;;;;;16.95;11.13;;;25.80;68.60;;;;;;6156570;28;83853;-61
2022/08/04 06:04:51;;;;;;;19.13;13.70;;;25.80;68.80;;;;;;6143986;28;83416;-63
2022/08/04 06:07:52;;;;;;;19.85;14.35;;;25.80;69.10;;;;;;6154041;28;83346;-63
2022/08/04 06:10:52;;;;;;;27.55;17.67;;;25.80;69.00;;;;;;6157156;28;83125;-63
2022/08/04 06:13:53;;;;;;;29.70;18.85;;;25.90;68.70;;;;;;6146755;28;83910;-62
2022/08/04 06:16:53;;;;;;;26.95;16.50;;;25.90;69.10;;;;;;6147057;28;83925;-62
2022/08/04 06:19:54;;;;;;;23.70;12.48;;;25.90;68.70;;;;;;6122963;28;83130;-64
2022/08/04 06:22:54;;;;;;;18.42;12.02;;;25.80;68.50;;;;;;6122947;28;83058;-74
2022/08/04 06:25:55;;;;;;;19.77;13.57;;;25.90;68.40;;;;;;6132562;28;83086;-71
2022/08/04 06:28:55;;;;;;;19.42;11.70;;;25.90;68.40;;;;;;6133384;28;82919;-63
2022/08/04 06:32:01;;;;;;;15.20;10.30;;;25.90;68.60;;;;;;6152538;28;83069;-67
2022/08/04 06:35:01;;;;;;;16.52;11.07;;;25.90;69.00;;;;;;6145648;28;83489;-63
2022/08/04 06:38:02;;;;;;;14.55;9.32;;;25.90;69.30;;;;;;6138747;28;82687;-67
2022/08/04 06:41:02;;;;;;;17.92;7.78;;;25.90;68.70;;;;;;6156063;28;83058;-65
2022/08/04 06:44:03;;;;;;;11.20;8.65;;;25.90;69.00;;;;;;6158018;28;80356;-72
2022/08/04 16:10:10;;;;;;;4.22;2.83;;;26.50;56.70;;;;;;7651297;22;2033815;-62
2022/08/04 16:13:13;;;;;;;3.50;2.70;;;26.50;56.50;;;;;;7737637;22;80415;-63
2022/08/04 16:16:13;;;;;;;3.80;3.35;;;26.60;56.40;;;;;;7723489;22;81492;-64
2022/08/04 16:19:15;;;;;;;3.47;2.80;;;26.50;56.30;;;;;;7724465;22;81805;-64
2022/08/04 16:22:15;;;;;;;3.75;2.92;;;26.60;56.80;;;;;;7724605;22;80288;-63
2022/08/04 16:25:16;;;;;;;3.75;3.20;;;26.60;55.20;;;;;;7725253;22;80364;-64
2022/08/04 16:28:16;;;;;;;6.32;3.00;;;26.70;54.50;;;;;;7725887;22;81384;-63
2022/08/04 16:31:17;;;;;;;4.10;3.33;;;26.70;55.00;;;;;;7726041;22;80627;-62
2022/08/04 16:34:17;;;;;;;4.00;2.65;;;26.70;54.80;;;;;;7725100;22;80192;-66
2022/08/04 16:37:18;;;;;;;7.85;3.05;;;26.60;54.90;;;;;;7724550;22;80356;-65
2022/08/04 16:40:19;;;;;;;3.92;3.10;;;26.70;54.70;;;;;;7725863;22;80243;-68
2022/08/04 16:43:22;;;;;;;4.75;3.20;;;26.70;54.00;;;;;;7725305;22;80073;-66
2022/08/04 16:46:22;;;;;;;13.77;4.88;;;26.70;53.20;;;;;;7723705;22;82084;-72
2022/08/04 16:49:23;;;;;;;14.60;5.55;;;26.70;55.80;;;;;;7724721;22;80512;-71
2022/08/04 16:52:23;;;;;;;17.13;5.25;;;26.70;56.80;;;;;;7724163;22;80320;-66
2022/08/04 16:55:24;;;;;;;11.15;5.00;;;26.70;56.10;;;;;;7722799;22;80363;-65
2022/08/04 16:58:24;;;;;;;11.10;4.20;;;26.70;56.10;;;;;;7725509;22;80691;-66
2022/08/04 17:01:28;;;;;;;15.85;5.18;;;26.70;56.10;;;;;;7723598;22;80203;-67
2022/08/04 17:04:29;;;;;;;8.25;4.47;;;26.70;56.10;;;;;;7724239;22;80226;-65
2022/08/04 17:07:29;;;;;;;9.13;3.97;;;26.70;55.70;;;;;;7722840;22;81790;-67
2022/08/04 17:10:30;;;;;;;5.57;3.63;;;26.70;55.80;;;;;;7698222;22;80468;-65
2022/08/04 17:13:30;;;;;;;4.88;3.60;;;26.70;55.90;;;;;;7686695;22;80354;-67
2022/08/04 17:16:31;;;;;;;8.77;4.07;;;26.70;56.10;;;;;;7687261;22;80282;-66
2022/08/04 17:19:32;;;;;;;9.38;3.85;;;26.70;55.80;;;;;;7686920;22;87981;-67
2022/08/04 17:22:32;;;;;;;4.95;3.38;;;26.70;56.00;;;;;;7686926;22;80489;-67
2022/08/04 17:25:33;;;;;;;4.93;2.83;;;26.60;55.40;;;;;;7688140;22;80057;-67
2022/08/04 17:28:34;;;;;;;9.27;3.75;;;26.60;54.50;;;;;;7687900;22;80490;-66
2022/08/04 17:31:34;;;;;;;7.18;2.85;;;26.60;54.90;;;;;;7688160;22;80524;-67
2022/08/04 17:34:35;;;;;;;10.23;3.10;;;26.60;55.20;;;;;;7688316;22;80081;-66
2022/08/04 17:37:35;;;;;;;5.10;2.97;;;26.60;55.50;;;;;;7688521;22;80279;-67
2022/08/04 17:40:36;;;;;;;3.38;2.78;;;26.60;55.70;;;;;;7687989;22;81239;-66
2022/08/04 17:43:36;;;;;;;3.50;2.97;;;26.60;55.90;;;;;;7688330;22;80425;-66
2022/08/04 17:46:37;;;;;;;7.40;3.05;;;26.60;56.10;;;;;;7688626;22;80579;-67
2022/08/04 17:49:37;;;;;;;3.17;2.85;;;26.60;56.40;;;;;;7689996;22;80519;-66
2022/08/04 17:52:38;;;;;;;7.57;3.80;;;26.60;56.50;;;;;;7689282;22;80286;-67
2022/08/04 17:55:38;;;;;;;5.70;3.60;;;26.60;56.70;;;;;;7689484;22;80440;-67
2022/08/04 17:58:39;;;;;;;8.23;3.88;;;26.60;56.90;;;;;;7689703;22;80545;-72
2022/08/04 18:01:39;;;;;;;4.30;2.88;;;26.60;57.00;;;;;;7689733;22;80559;-68
2022/08/04 18:04:40;;;;;;;5.03;3.38;;;26.60;57.30;;;;;;7689435;22;80262;-66
2022/08/04 18:07:41;;;;;;;3.90;3.08;;;26.60;57.40;;;;;;7688867;22;80419;-69
2022/08/04 18:10:42;;;;;;;3.40;3.10;;;26.60;57.50;;;;;;7689056;22;81065;-68
2022/08/04 18:13:42;;;;;;;4.70;3.33;;;26.60;57.50;;;;;;7689547;22;80063;-65
2022/08/04 18:16:43;;;;;;;6.80;3.70;;;26.60;57.80;;;;;;7689234;22;80556;-65
2022/08/04 18:19:43;;;;;;;4.70;3.45;;;26.60;57.80;;;;;;7689120;22;80204;-66
2022/08/04 18:22:44;;;;;;;5.32;3.05;;;26.60;57.90;;;;;;7689079;22;80081;-65
2022/08/04 18:25:45;;;;;;;7.57;3.75;;;26.60;58.00;;;;;;7688605;22;80236;-64
2022/08/04 18:28:46;;;;;;;12.05;3.83;;;26.60;57.90;;;;;;7689667;22;79932;-77
2022/08/04 18:31:46;;;;;;;12.95;4.18;;;26.60;58.10;;;;;;7689118;22;80106;-70
2022/08/04 18:34:47;;;;;;;13.05;3.20;;;26.50;58.10;;;;;;7688873;22;86753;-69
2022/08/04 18:37:49;;;;;;;14.95;5.60;;;26.60;58.50;;;;;;7689967;22;80604;-72
2022/08/04 18:40:50;;;;;;;12.48;7.35;;;26.60;58.40;;;;;;7686577;22;81554;-71
2022/08/04 18:43:52;;;;;;;12.10;6.82;;;26.50;58.60;;;;;;7688858;22;80184;-68
2022/08/04 18:46:53;;;;;;;8.85;5.45;;;26.30;59.40;;;;;;7689057;22;80197;-71
2022/08/04 18:49:53;;;;;;;7.90;5.10;;;26.20;59.10;;;;;;7688505;22;80162;-68
2022/08/04 18:52:54;;;;;;;7.05;4.72;;;26.10;58.80;;;;;;7688953;22;80090;-68
2022/08/04 18:55:55;;;;;;;8.02;4.65;;;26.00;58.60;;;;;;7683901;22;83322;-69
2022/08/04 18:58:55;;;;;;;8.52;4.35;;;26.00;59.20;;;;;;7683551;22;80349;-69
2022/08/04 19:01:56;;;;;;;9.02;5.10;;;25.90;58.60;;;;;;7682397;22;82727;-69
2022/08/04 19:04:56;;;;;;;10.90;6.45;;;25.90;58.80;;;;;;7682718;22;81159;-71
2022/08/04 19:07:57;;;;;;;8.73;5.28;;;25.90;58.70;;;;;;7682294;22;80777;-72
2022/08/04 19:10:58;;;;;;;9.27;6.15;;;25.90;58.90;;;;;;7685602;22;80281;-70
2022/08/04 19:13:59;;;;;;;10.77;6.90;;;25.80;58.90;;;;;;7686249;22;80970;-69
2022/08/04 19:16:59;;;;;;;12.55;6.90;;;25.80;59.00;;;;;;7681521;22;82399;-69
2022/08/04 19:20:01;;;;;;;13.18;6.47;;;25.80;59.30;;;;;;7686125;22;81574;-69
2022/08/04 19:23:02;;;;;;;13.38;6.35;;;25.80;59.50;;;;;;7688219;22;80739;-70
2022/08/04 19:26:02;;;;;;;15.13;6.70;;;25.80;59.50;;;;;;7687485;22;80285;-71
2022/08/04 19:29:03;;;;;;;10.55;6.60;;;25.70;59.60;;;;;;7688132;22;80365;-70
2022/08/04 19:32:03;;;;;;;13.70;6.07;;;25.80;59.60;;;;;;7687850;22;81151;-70
2022/08/04 19:35:04;;;;;;;10.13;5.82;;;26.00;59.40;;;;;;7687473;22;81384;-70
2022/08/04 19:38:07;;;;;;;10.43;5.90;;;26.10;59.50;;;;;;7687908;22;80310;-70
2022/08/04 19:41:08;;;;;;;12.93;5.97;;;26.10;59.50;;;;;;7687917;22;82121;-69
2022/08/04 19:44:08;;;;;;;8.85;6.45;;;26.20;59.70;;;;;;7687378;22;81208;-68
2022/08/04 19:47:09;;;;;;;11.13;6.40;;;26.30;59.60;;;;;;7687091;22;80334;-70
2022/08/04 19:50:09;;;;;;;11.73;6.20;;;26.30;59.60;;;;;;7687643;22;80278;-70
2022/08/04 19:53:10;;;;;;;9.70;5.88;;;26.30;59.80;;;;;;7687714;22;80165;-68
2022/08/04 19:56:10;;;;;;;9.23;5.82;;;26.40;59.80;;;;;;7686447;22;80786;-68
2022/08/04 19:59:11;;;;;;;16.48;7.38;;;26.40;59.60;;;;;;7687721;22;80736;-69
2022/08/04 20:02:12;;;;;;;10.40;6.35;;;26.40;59.40;;;;;;7686374;22;80480;-68
2022/08/04 20:05:12;;;;;;;15.10;6.90;;;26.40;59.70;;;;;;7686197;22;80529;-69
2022/08/04 20:08:13;;;;;;;11.55;6.60;;;26.40;59.70;;;;;;7686494;22;80329;-69
2022/08/04 20:11:14;;;;;;;13.10;6.80;;;26.40;59.60;;;;;;7686483;22;80284;-70
2022/08/04 20:14:15;;;;;;;12.05;6.85;;;26.40;59.70;;;;;;7686581;22;80733;-70
2022/08/04 20:17:15;;;;;;;12.40;6.22;;;26.40;59.70;;;;;;7686836;22;80200;-70
2022/08/04 20:20:16;;;;;;;8.98;6.13;;;26.40;59.50;;;;;;7688141;22;80335;-72
2022/08/04 20:23:16;;;;;;;12.13;6.78;;;26.40;59.40;;;;;;7688407;22;80266;-71
2022/08/04 20:26:17;;;;;;;14.23;6.68;;;26.40;59.50;;;;;;7684144;22;80765;-72
2022/08/04 20:29:17;;;;;;;10.15;6.47;;;26.40;59.50;;;;;;7687102;22;81583;-73
2022/08/04 20:32:18;;;;;;;11.23;6.50;;;26.30;59.40;;;;;;7687338;22;80443;-71
2022/08/04 20:35:20;;;;;;;12.80;6.88;;;26.40;59.40;;;;;;7687479;22;80342;-70
2022/08/04 20:38:20;;;;;;;11.23;6.47;;;26.30;59.20;;;;;;7686557;22;80473;-72
2022/08/04 20:41:21;;;;;;;9.48;5.63;;;26.30;59.30;;;;;;7685894;22;80279;-72
2022/08/04 20:44:21;;;;;;;11.15;6.18;;;26.30;59.20;;;;;;7687513;22;80571;-73
2022/08/04 20:47:22;;;;;;;9.55;5.68;;;26.30;59.20;;;;;;7686982;22;80250;-72
2022/08/04 20:50:22;;;;;;;9.50;6.07;;;26.30;59.30;;;;;;7687310;22;80447;-72
2022/08/04 20:53:23;;;;;;;10.57;5.55;;;26.30;59.70;;;;;;7686518;22;80706;-72
2022/08/04 20:56:23;;;;;;;11.18;6.45;;;26.30;59.60;;;;;;7687023;22;80705;-71
2022/08/04 20:59:24;;;;;;;12.00;7.03;;;26.30;60.10;;;;;;7686439;22;80576;-69
2022/08/04 21:02:24;;;;;;;12.85;6.53;;;26.30;60.20;;;;;;7687122;22;85755;-66
2022/08/04 21:05:25;;;;;;;10.77;5.72;;;26.30;60.20;;;;;;7687974;22;80367;-70
2022/08/04 21:08:25;;;;;;;10.18;5.65;;;26.30;60.20;;;;;;7688370;22;80161;-72
2022/08/04 21:11:26;;;;;;;10.55;6.20;;;26.30;60.20;;;;;;7688148;22;80266;-73
2022/08/04 21:14:28;;;;;;;12.77;6.40;;;26.20;60.50;;;;;;7688651;22;80325;-70
2022/08/04 21:17:28;;;;;;;11.95;6.50;;;26.30;60.20;;;;;;7688284;22;80395;-70
2022/08/04 21:20:29;;;;;;;12.15;6.95;;;26.20;60.30;;;;;;7688454;22;80265;-71
2022/08/04 21:23:29;;;;;;;9.07;6.32;;;26.20;60.20;;;;;;7688142;22;80485;-71
2022/08/04 21:26:30;;;;;;;17.90;6.55;;;26.20;60.00;;;;;;7688575;22;80357;-70
2022/08/04 21:29:30;;;;;;;11.38;6.22;;;26.20;60.20;;;;;;7688458;22;80718;-70
2022/08/04 21:32:31;;;;;;;9.98;6.28;;;26.20;60.60;;;;;;7687922;22;80188;-70
2022/08/04 21:35:31;;;;;;;10.00;5.57;;;26.20;60.20;;;;;;7688154;22;80477;-68
2022/08/04 21:38:32;;;;;;;11.25;6.35;;;26.20;60.20;;;;;;7687816;22;80531;-70
2022/08/04 21:41:32;;;;;;;9.98;6.53;;;26.20;60.40;;;;;;7688393;22;80164;-71
2022/08/04 21:44:33;;;;;;;9.52;5.50;;;26.10;60.50;;;;;;7687856;22;80788;-70
2022/08/04 21:47:33;;;;;;;10.57;6.47;;;26.10;60.70;;;;;;7687974;22;80132;-69
2022/08/04 21:50:33;;;;;;;9.70;5.75;;;26.10;60.60;;;;;;7687878;22;81985;-71
2022/08/04 21:53:34;;;;;;;11.23;6.53;;;26.10;60.70;;;;;;7687515;22;81141;-70
2022/08/04 21:56:35;;;;;;;10.32;6.00;;;26.10;60.80;;;;;;7687765;22;80231;-70
2022/08/04 21:59:35;;;;;;;8.23;5.47;;;26.10;60.70;;;;;;7687916;22;80211;-70
2022/08/04 22:02:36;;;;;;;10.68;6.22;;;26.10;60.70;;;;;;7684966;22;80343;-70
2022/08/04 22:05:36;;;;;;;9.15;6.25;;;26.10;60.70;;;;;;7687329;22;80549;-69
2022/08/04 22:08:37;;;;;;;14.27;6.57;;;26.10;60.70;;;;;;7687127;22;80492;-70
2022/08/04 22:11:37;;;;;;;11.90;6.18;;;26.10;60.80;;;;;;7686427;22;80462;-70
2022/08/04 22:14:38;;;;;;;11.90;5.68;;;26.10;61.00;;;;;;7687159;22;80261;-70
2022/08/04 22:17:39;;;;;;;12.75;6.55;;;26.00;61.00;;;;;;7687508;22;80332;-70
2022/08/04 22:20:39;;;;;;;14.13;6.93;;;26.00;61.10;;;;;;7688618;22;85423;-70
2022/08/04 22:23:40;;;;;;;12.73;6.55;;;26.10;61.30;;;;;;7689024;22;80142;-69
2022/08/04 22:26:40;;;;;;;14.20;6.43;;;26.10;61.40;;;;;;7689001;22;80750;-69
2022/08/04 22:29:41;;;;;;;10.35;6.78;;;26.00;61.40;;;;;;7688857;22;80622;-69
2022/08/04 22:32:41;;;;;;;8.43;5.70;;;26.00;61.60;;;;;;7689270;22;80574;-69
2022/08/04 22:35:42;;;;;;;10.77;5.60;;;26.00;61.70;;;;;;7689009;22;80300;-70
2022/08/04 22:38:42;;;;;;;10.93;5.88;;;26.00;61.60;;;;;;7689132;22;80193;-72
2022/08/04 22:41:43;;;;;;;9.57;6.38;;;26.00;61.70;;;;;;7688739;22;80334;-70
2022/08/04 22:44:44;;;;;;;7.45;5.65;;;26.00;61.80;;;;;;7689190;22;81169;-70
2022/08/04 22:47:44;;;;;;;14.70;6.65;;;26.00;61.60;;;;;;7689627;22;80230;-71
2022/08/04 22:50:45;;;;;;;12.20;6.57;;;26.00;61.20;;;;;;7689366;22;80135;-70
2022/08/04 22:53:45;;;;;;;10.15;6.40;;;26.00;61.40;;;;;;7687533;22;83459;-68
2022/08/04 22:56:46;;;;;;;9.95;6.28;;;26.00;61.20;;;;;;7688981;22;80152;-68
2022/08/04 22:59:46;;;;;;;11.52;7.50;;;26.00;61.20;;;;;;7689221;22;81371;-71
2022/08/04 23:02:47;;;;;;;12.40;7.18;;;25.90;61.00;;;;;;7689217;22;81338;-69
2022/08/04 23:05:47;;;;;;;9.45;6.03;;;25.90;61.10;;;;;;7688665;22;80217;-69
2022/08/04 23:08:48;;;;;;;11.38;7.05;;;25.90;61.10;;;;;;7688477;22;80256;-69
2022/08/04 23:11:48;;;;;;;8.68;5.63;;;25.90;61.10;;;;;;7688390;22;80216;-69
2022/08/04 23:14:48;;;;;;;13.13;6.40;;;25.80;61.20;;;;;;7688647;22;81303;-70
2022/08/04 23:17:49;;;;;;;11.25;6.15;;;25.80;61.20;;;;;;7688867;22;80315;-70
2022/08/04 23:20:50;;;;;;;10.52;6.10;;;25.80;61.30;;;;;;7689259;22;80173;-70
2022/08/04 23:23:50;;;;;;;13.50;6.43;;;25.80;61.40;;;;;;7688987;22;80616;-69
2022/08/04 23:26:50;;;;;;;9.25;6.30;;;25.80;61.40;;;;;;7688854;22;80130;-69
2022/08/04 23:29:51;;;;;;;8.43;5.28;;;25.80;61.50;;;;;;7689174;22;80416;-69
2022/08/04 23:32:52;;;;;;;9.95;4.97;;;25.80;61.70;;;;;;7689330;22;81028;-69
2022/08/04 23:35:52;;;;;;;9.13;5.85;;;25.80;61.90;;;;;;7688898;22;81240;-69
2022/08/04 23:38:52;;;;;;;8.73;5.95;;;25.80;62.00;;;;;;7688741;22;80670;-68
2022/08/04 23:41:53;;;;;;;12.82;6.28;;;25.80;62.10;;;;;;7688537;22;80525;-69
2022/08/04 23:44:53;;;;;;;8.32;5.40;;;25.80;62.00;;;;;;7688952;22;80823;-68
2022/08/04 23:47:54;;;;;;;9.57;5.97;;;25.80;62.00;;;;;;7688942;22;80155;-69
2022/08/04 23:50:54;;;;;;;9.57;5.20;;;25.70;62.00;;;;;;7689097;22;81105;-69
2022/08/04 23:53:55;;;;;;;9.27;6.13;;;25.70;62.20;;;;;;7688451;22;81270;-69
2022/08/04 23:56:55;;;;;;;8.18;5.28;;;25.70;62.30;;;;;;7688396;22;80143;-69
2022/08/04 23:59:56;;;;;;;9.25;5.55;;;25.80;62.30;;;;;;7688438;22;81252;-70
